Time;durP1;ratioP1;P1;durP2;ratioP2;P2;SDS_P1;SDS_P2;PMS_P1;PMS_P2;Temp;Humidity;BMP_temperature;BMP_pressure;BME280_temperature;BME280_humidity;BME280_pressure;Samples;Min_cycle;Max_cycle;Signal;HPM_P1;HPM_P2
2023/08/22 04:35:37;;;;;;;8.20;4.70;;;;;;;30.99;42.81;100069.44;105569;1283;600187;-68
2023/08/22 04:38:05;;;;;;;4.80;4.30;;;;;;;32.10;40.71;100065.65;107407;1264;60120;-68
2023/08/22 04:40:34;;;;;;;5.00;4.20;;;;;;;32.47;40.14;100068.75;107323;1263;60000;-69
2023/08/22 04:43:10;;;;;;;5.00;3.90;;;;;;;32.80;39.14;100063.61;107447;1262;72197;-68
2023/08/22 04:45:37;;;;;;;5.00;4.10;;;;;;;32.98;38.39;100066.88;107299;1263;69367;-68
2023/08/22 04:48:06;;;;;;;7.40;3.90;;;;;;;33.21;37.94;100069.69;107199;1263;190713;-69
2023/08/22 04:50:34;;;;;;;7.80;4.10;;;;;;;33.58;37.52;100065.98;107462;1264;60040;-68
2023/08/22 04:53:02;;;;;;;6.20;4.30;;;;;;;33.84;37.10;100070.63;107444;1263;59220;-69
2023/08/22 04:55:30;;;;;;;4.40;3.90;;;;;;;33.99;36.40;100073.09;107408;1262;72241;-69
2023/08/22 04:57:57;;;;;;;5.00;3.70;;;;;;;34.29;35.96;100071.06;107406;1263;61384;-68
2023/08/22 05:00:24;;;;;;;7.30;4.00;;;;;;;34.63;35.41;100074.52;107365;1263;63748;-68
2023/08/22 05:02:52;;;;;;;5.70;4.00;;;;;;;34.87;34.68;100068.93;107393;1264;58984;-69
2023/08/22 05:05:19;;;;;;;6.00;4.00;;;;;;;34.97;34.11;100066.30;107399;1262;59352;-68
2023/08/22 05:07:47;;;;;;;6.50;3.90;;;;;;;34.94;34.13;100064.39;107384;1268;64122;-69
2023/08/22 05:10:14;;;;;;;5.20;3.40;;;;;;;34.96;33.99;100066.39;107402;1263;61517;-69
2023/08/22 05:12:41;;;;;;;4.30;3.50;;;;;;;35.21;33.70;100067.00;107410;1264;63966;-70
2023/08/22 05:15:09;;;;;;;5.90;3.10;;;;;;;35.60;32.51;100063.09;107393;1262;59588;-69
2023/08/22 05:17:37;;;;;;;6.80;3.30;;;;;;;35.74;31.96;100067.17;107411;1262;59632;-69
2023/08/22 05:20:10;;;;;;;5.80;3.40;;;;;;;35.83;31.73;100074.08;107424;1263;64127;-69
2023/08/22 05:22:37;;;;;;;4.40;2.80;;;;;;;35.82;31.49;100072.96;107478;1262;60397;-69
2023/08/22 05:25:05;;;;;;;9.50;3.60;;;;;;;35.95;31.28;100072.79;107448;1264;63782;-69
2023/08/22 05:27:32;;;;;;;6.10;3.00;;;;;;;36.11;30.94;100076.61;107346;1264;59656;-68
2023/08/22 05:30:00;;;;;;;9.80;2.80;;;;;;;36.22;30.14;100074.16;107332;1264;59483;-69
2023/08/22 05:32:27;;;;;;;5.60;2.90;;;;;;;36.30;30.22;100078.73;107407;1264;62943;-69
2023/08/22 05:34:55;;;;;;;3.50;2.90;;;;;;;36.32;29.72;100083.64;108083;1254;61458;-68
2023/08/22 05:37:23;;;;;;;9.40;3.10;;;;;;;36.38;29.41;100080.63;107964;1257;62575;-69
2023/08/22 05:39:50;;;;;;;7.00;3.10;;;;;;;36.27;28.94;100077.83;107976;1254;59477;-70
2023/08/22 05:42:18;;;;;;;6.70;2.40;;;;;;;36.05;29.16;100080.64;108030;1254;59624;-70
2023/08/22 05:44:45;;;;;;;6.90;2.80;;;;;;;36.15;29.26;100078.45;108077;1253;73328;-69
2023/08/22 05:47:13;;;;;;;4.40;3.00;;;;;;;36.32;28.90;100078.58;107948;1254;60100;-70
2023/08/22 05:49:43;;;;;;;8.10;2.80;;;;;;;36.56;28.88;100080.19;107921;1254;71117;-68
2023/08/22 05:52:10;;;;;;;5.10;3.20;;;;;;;36.62;28.60;100086.47;107890;1257;60060;-69
2023/08/22 05:54:38;;;;;;;6.50;2.70;;;;;;;36.77;28.58;100085.70;107946;1256;59566;-69
2023/08/22 05:57:05;;;;;;;6.50;2.80;;;;;;;36.83;28.41;100083.09;107980;1254;64674;-69
2023/08/22 05:59:33;;;;;;;5.10;2.70;;;;;;;36.76;28.07;100079.40;108051;1254;61348;-68
2023/08/22 06:02:02;;;;;;;7.30;2.90;;;;;;;36.62;28.17;100076.03;108293;1253;62551;-70
2023/08/22 06:04:29;;;;;;;7.70;3.40;;;;;;;36.52;28.37;100081.77;108142;1253;59512;-70
2023/08/22 06:06:57;;;;;;;6.30;3.00;;;;;;;36.60;28.46;100081.35;108092;1253;59561;-69
2023/08/22 06:09:24;;;;;;;6.10;3.30;;;;;;;36.85;28.20;100086.77;108336;1253;63068;-71
2023/08/22 06:11:51;;;;;;;9.30;3.10;;;;;;;36.98;27.91;100082.80;108278;1253;60230;-70
2023/08/22 06:14:19;;;;;;;6.00;3.20;;;;;;;37.07;27.86;100080.04;108181;1253;63704;-69
2023/08/22 06:16:46;;;;;;;9.10;2.90;;;;;;;37.29;27.90;100079.52;108102;1257;59523;-69
2023/08/22 06:19:15;;;;;;;5.40;2.90;;;;;;;37.44;27.46;100075.55;108225;1252;59521;-70
2023/08/22 06:21:42;;;;;;;5.90;2.80;;;;;;;37.43;27.04;100076.77;108241;1253;64459;-70
2023/08/22 06:24:10;;;;;;;8.20;3.30;;;;;;;37.02;27.38;100082.42;108209;1253;61331;-70
2023/08/22 06:26:37;;;;;;;8.90;3.30;;;;;;;36.94;27.40;100081.63;108121;1254;64268;-67
2023/08/22 06:29:05;;;;;;;7.50;3.20;;;;;;;36.85;27.66;100080.44;108042;1253;59621;-69
2023/08/22 06:31:32;;;;;;;6.40;3.00;;;;;;;36.71;27.65;100080.98;108572;1254;59486;-69
2023/08/22 06:33:59;;;;;;;9.70;3.00;;;;;;;36.73;27.68;100078.86;108761;1253;63063;-70
2023/08/22 06:36:28;;;;;;;5.90;2.90;;;;;;;36.76;27.72;100079.70;108259;1254;60219;-69
2023/08/22 06:38:56;;;;;;;4.40;2.70;;;;;;;36.92;27.45;100075.11;108541;1254;62587;-70
2023/08/22 06:41:23;;;;;;;7.00;2.90;;;;;;;37.19;27.00;100075.70;108071;1253;59606;-70
2023/08/22 06:43:51;;;;;;;5.70;2.50;;;;;;;37.39;26.73;100081.74;108048;1253;59662;-69
2023/08/22 06:46:21;;;;;;;6.60;2.80;;;;;;;37.62;26.33;100077.85;108053;1254;64175;-70
2023/08/22 06:48:49;;;;;;;7.80;2.30;;;;;;;37.68;25.93;100075.48;108148;1253;61386;-70
2023/08/22 06:51:17;;;;;;;5.60;2.30;;;;;;;37.76;24.88;100072.11;108031;1256;62435;-70
2023/08/22 06:53:44;;;;;;;7.90;2.40;;;;;;;37.80;24.19;100071.66;108072;1253;59624;-69
2023/08/22 06:56:11;;;;;;;5.80;2.40;;;;;;;37.84;24.32;100078.14;108057;1253;59404;-69
2023/08/22 06:58:39;;;;;;;7.20;2.10;;;;;;;37.71;23.89;100079.20;108049;1257;72321;-69
2023/08/22 07:01:07;;;;;;;9.60;2.10;;;;;;;37.79;23.47;100084.81;108012;1257;60268;-69
2023/08/22 07:03:35;;;;;;;5.50;2.00;;;;;;;37.87;23.29;100085.83;108062;1253;63920;-68
2023/08/22 07:06:03;;;;;;;6.80;1.80;;;;;;;37.66;23.52;100086.59;108054;1254;59783;-70
2023/08/22 07:08:30;;;;;;;7.00;1.80;;;;;;;37.52;23.24;100088.58;108101;1253;59247;-70
2023/08/22 07:11:04;;;;;;;11.50;1.90;;;;;;;37.35;22.88;100090.69;108080;1254;64117;-70
2023/08/22 07:13:32;;;;;;;5.30;1.80;;;;;;;37.31;23.21;100087.19;108131;1254;61654;-70
2023/08/22 07:15:59;;;;;;;6.60;1.90;;;;;;;37.38;22.88;100084.41;108148;1253;63695;-70
2023/08/22 07:18:27;;;;;;;6.20;2.20;;;;;;;37.56;22.57;100087.38;108063;1254;59474;-69
2023/08/22 07:20:55;;;;;;;5.50;1.50;;;;;;;37.26;22.55;100081.37;108133;1254;59596;-70
2023/08/22 07:23:22;;;;;;;3.50;1.70;;;;;;;37.29;22.37;100086.23;108131;1253;64267;-70
2023/08/22 07:25:50;;;;;;;3.90;1.60;;;;;;;37.49;22.13;100086.11;108282;1253;60478;-70
2023/08/22 07:28:18;;;;;;;3.70;1.80;;;;;;;37.51;22.26;100081.91;108180;1254;63738;-70
2023/08/22 07:30:46;;;;;;;6.00;1.70;;;;;;;37.04;22.40;100080.55;108151;1254;59461;-69
2023/08/22 07:33:14;;;;;;;2.70;1.50;;;;;;;36.98;22.14;100079.13;108182;1252;59534;-70
2023/08/22 07:35:44;;;;;;;4.40;1.20;;;;;;;37.18;21.92;100083.16;108138;1252;62966;-70
2023/08/22 07:38:12;;;;;;;6.60;1.90;;;;;;;37.20;21.27;100083.05;108154;1254;61399;-69
2023/08/22 07:40:40;;;;;;;3.90;1.30;;;;;;;37.22;21.22;100076.25;108241;1253;73500;-69
2023/08/22 07:43:07;;;;;;;3.40;1.40;;;;;;;37.05;20.84;100075.71;108224;1256;59483;-69
2023/08/22 07:45:35;;;;;;;5.40;1.30;;;;;;;36.89;21.22;100080.80;108086;1252;59497;-69
2023/08/22 07:48:03;;;;;;;6.90;1.50;;;;;;;37.25;21.30;100087.46;108116;1254;64265;-69
2023/08/22 07:50:30;;;;;;;6.60;2.30;;;;;;;37.52;20.66;100081.27;108265;1254;62227;-70
2023/08/22 07:52:58;;;;;;;7.50;1.60;;;;;;;37.31;20.67;100084.38;108253;1253;63711;-69
2023/08/22 07:55:26;;;;;;;4.70;1.80;;;;;;;37.17;20.82;100083.80;108160;1251;59473;-69
2023/08/22 07:57:53;;;;;;;3.90;1.60;;;;;;;37.36;20.70;100083.70;108244;1253;59503;-69
2023/08/22 08:00:22;;;;;;;5.20;1.50;;;;;;;37.84;20.76;100081.70;108067;1252;63084;-70
2023/08/22 08:02:49;;;;;;;4.50;1.20;;;;;;;38.35;20.20;100086.62;108175;1252;60133;-69
2023/08/22 08:05:17;;;;;;;6.50;1.60;;;;;;;38.55;19.66;100089.11;108249;1253;63687;-69
2023/08/22 08:07:45;;;;;;;4.10;1.00;;;;;;;38.26;19.59;100088.64;108325;1256;59611;-69
2023/08/22 08:10:13;;;;;;;4.20;1.40;;;;;;;38.10;19.03;100087.52;108277;1253;59376;-69
2023/08/22 08:12:40;;;;;;;4.50;1.30;;;;;;;37.83;19.66;100087.30;108167;1251;65093;-70
2023/08/22 08:15:08;;;;;;;2.40;1.10;;;;;;;37.62;20.36;100089.24;108206;1256;60106;-69
2023/08/22 08:17:35;;;;;;;3.10;1.50;;;;;;;37.82;20.39;100089.63;108146;1254;63838;-69
2023/08/22 08:20:04;;;;;;;4.40;1.50;;;;;;;37.99;19.14;100086.97;108158;1251;59506;-69
2023/08/22 08:22:32;;;;;;;5.50;1.30;;;;;;;37.96;18.83;100095.83;108238;1252;59621;-69
2023/08/22 08:24:59;;;;;;;3.10;1.20;;;;;;;38.03;19.22;100091.70;108181;1254;64338;-70
2023/08/22 08:27:27;;;;;;;3.90;1.30;;;;;;;38.13;18.80;100095.34;108115;1254;60393;-69
2023/08/22 08:29:54;;;;;;;6.30;1.60;;;;;;;38.15;18.48;100090.38;108094;1254;63748;-70
2023/08/22 08:32:23;;;;;;;6.80;1.50;;;;;;;38.03;18.73;100089.11;108163;1253;59614;-70
2023/08/22 08:34:50;;;;;;;5.80;1.50;;;;;;;37.88;18.55;100091.64;108136;1253;59730;-69
2023/08/22 08:37:19;;;;;;;7.00;1.30;;;;;;;37.80;18.72;100097.31;108132;1254;62922;-70
2023/08/22 08:39:46;;;;;;;9.10;1.70;;;;;;;37.80;18.73;100093.85;108298;1254;61922;-69
2023/08/22 08:42:14;;;;;;;5.40;1.30;;;;;;;37.95;18.57;100090.86;108152;1253;62620;-69
2023/08/22 08:44:41;;;;;;;4.40;1.50;;;;;;;38.23;18.76;100097.11;108214;1253;60530;-69
2023/08/22 08:47:09;;;;;;;6.60;1.60;;;;;;;38.48;18.24;100092.46;108175;1253;60274;-69
2023/08/22 08:49:39;;;;;;;5.80;1.60;;;;;;;38.56;18.34;100090.84;108179;1253;63685;-69
2023/08/22 08:52:08;;;;;;;2.20;1.30;;;;;;;38.55;18.71;100092.04;108131;1254;61376;-69
2023/08/22 08:54:36;;;;;;;3.90;1.60;;;;;;;38.39;18.38;100096.66;108139;1253;63686;-68
2023/08/22 08:57:04;;;;;;;8.70;1.50;;;;;;;38.10;18.32;100096.70;108128;1253;60434;-70
2023/08/22 08:59:32;;;;;;;3.50;1.30;;;;;;;38.08;18.28;100095.81;108159;1253;60322;-68
2023/08/22 09:02:03;;;;;;;3.20;1.20;;;;;;;38.45;18.27;100096.91;108118;1253;64928;-68
2023/08/22 09:04:30;;;;;;;4.00;1.40;;;;;;;38.55;17.83;100096.92;108103;1253;62264;-69
2023/08/22 09:06:58;;;;;;;4.40;1.40;;;;;;;38.53;17.02;100099.23;108104;1254;71781;-69
2023/08/22 09:09:27;;;;;;;10.10;1.40;;;;;;;38.47;17.02;100099.97;108119;1255;58857;-69
2023/08/22 09:11:56;;;;;;;3.80;1.20;;;;;;;38.17;17.20;100102.92;107950;1253;60319;-68
2023/08/22 09:14:24;;;;;;;4.20;1.10;;;;;;;38.21;17.22;100106.29;108157;1253;63638;-69
2023/08/22 09:16:52;;;;;;;2.70;1.00;;;;;;;38.28;17.45;100103.83;108047;1253;61617;-70
2023/08/22 09:19:19;;;;;;;3.40;1.30;;;;;;;38.17;17.60;100093.73;108177;1253;63759;-69
2023/08/22 09:22:03;;;;;;;5.60;1.20;;;;;;;37.93;17.74;100104.30;107882;1254;60619;-69
2023/08/22 09:24:31;;;;;;;4.30;1.60;;;;;;;37.59;18.05;100097.48;108116;1254;60384;-70
2023/08/22 09:27:06;;;;;;;5.60;1.50;;;;;;;37.56;18.06;100095.61;108219;1254;64963;-70
2023/08/22 09:29:34;;;;;;;5.30;1.50;;;;;;;37.70;17.97;100104.61;108223;1253;60434;-70
2023/08/22 09:32:05;;;;;;;4.40;1.30;;;;;;;37.56;18.27;100100.44;108137;1254;63724;-69
2023/08/22 09:34:33;;;;;;;3.40;1.30;;;;;;;37.46;18.34;100106.48;108153;1254;60430;-69
2023/08/22 09:37:02;;;;;;;3.50;1.40;;;;;;;37.53;18.66;100103.43;108228;1253;60420;-69
2023/08/22 09:39:31;;;;;;;3.80;1.50;;;;;;;37.61;19.00;100106.67;108226;1253;63609;-70
2023/08/22 09:41:58;;;;;;;3.00;1.20;;;;;;;37.55;19.07;100106.07;108253;1252;60530;-70
2023/08/22 09:44:27;;;;;;;3.50;1.30;;;;;;;37.57;19.27;100103.63;108214;1253;62759;-70
2023/08/22 09:46:55;;;;;;;3.00;1.20;;;;;;;37.79;19.00;100103.92;108179;1254;60428;-69
2023/08/22 09:49:23;;;;;;;4.00;1.20;;;;;;;37.89;19.27;100101.10;108194;1253;60204;-69
2023/08/22 09:51:51;;;;;;;2.70;1.20;;;;;;;38.03;19.15;100105.65;108265;1254;63835;-69
2023/08/22 09:54:21;;;;;;;7.90;1.30;;;;;;;38.08;19.13;100101.17;108308;1252;61404;-69
2023/08/22 09:56:49;;;;;;;8.60;2.60;;;;;;;38.14;19.34;100104.34;108207;1254;64134;-68
2023/08/22 09:59:17;;;;;;;23.00;13.10;;;;;;;37.95;18.97;100102.23;108179;1254;60389;-69
2023/08/22 10:01:44;;;;;;;39.50;27.00;;;;;;;37.78;18.73;100102.49;108336;1254;60154;-69
2023/08/22 10:04:13;;;;;;;17.40;8.90;;;;;;;37.75;19.24;100107.25;108326;1252;63716;-69
2023/08/22 10:06:41;;;;;;;11.00;2.40;;;;;;;37.73;18.70;100106.17;108213;1253;60261;-69
2023/08/22 10:09:15;;;;;;;4.00;1.50;;;;;;;37.86;18.85;100108.46;108239;1253;65723;-70
2023/08/22 10:11:48;;;;;;;4.00;1.40;;;;;;;38.22;18.56;100108.84;108262;1255;60527;-70
2023/08/22 10:14:25;;;;;;;2.50;1.30;;;;;;;38.36;17.85;100111.12;108263;1253;59596;-69
2023/08/22 10:16:57;;;;;;;3.80;1.50;;;;;;;38.10;18.61;100106.05;108231;1252;65126;-70
2023/08/22 10:19:25;;;;;;;5.50;1.60;;;;;;;37.75;18.51;100108.25;108237;1254;60775;-70
2023/08/22 10:21:56;;;;;;;3.20;1.50;;;;;;;37.62;18.84;100107.98;108126;1253;64053;-69
2023/08/22 10:24:28;;;;;;;4.10;1.10;;;;;;;37.70;19.09;100106.86;108261;1254;60340;-70
2023/08/22 10:27:05;;;;;;;8.60;1.30;;;;;;;37.79;18.83;100110.59;108124;1254;60135;-70
2023/08/22 10:29:37;;;;;;;18.80;12.30;;;;;;;37.77;18.25;100110.16;108170;1253;64956;-70
2023/08/22 10:32:04;;;;;;;6.30;3.20;;;;;;;37.58;18.63;100109.45;108279;1254;61422;-70
2023/08/22 10:34:38;;;;;;;5.30;1.50;;;;;;;37.34;18.79;100112.11;108063;1254;63684;-68
2023/08/22 10:37:22;;;;;;;1.30;0.90;;;;;;;37.55;18.84;100117.06;108075;1257;60383;-69
2023/08/22 10:39:50;;;;;;;1.90;1.20;;;;;;;37.55;18.49;100118.82;108097;1253;60439;-70
2023/08/22 10:42:17;;;;;;;2.30;1.00;;;;;;;37.66;18.28;100111.10;108054;1253;64941;-69
2023/08/22 10:44:52;;;;;;;3.00;1.10;;;;;;;37.88;18.44;100102.56;108122;1254;61349;-69
2023/08/22 10:47:21;;;;;;;4.30;1.30;;;;;;;38.04;18.52;100102.03;108047;1257;63736;-68
2023/08/22 10:49:52;;;;;;;4.30;1.60;;;;;;;38.40;17.97;100109.10;108137;1254;60603;-70
2023/08/22 10:52:36;;;;;;;3.40;1.20;;;;;;;38.52;17.96;100111.65;108071;1253;60314;-70
2023/08/22 10:55:14;;;;;;;3.20;1.40;;;;;;;38.57;17.81;100106.14;108090;1253;65781;-69
2023/08/22 10:57:44;;;;;;;4.10;1.10;;;;;;;38.38;17.79;100104.45;108014;1252;60452;-69
2023/08/22 11:00:19;;;;;;;4.50;1.10;;;;;;;38.46;18.27;100112.73;108068;1254;63746;-69
2023/08/22 11:02:57;;;;;;;5.50;1.10;;;;;;;38.70;17.88;100115.72;108027;1252;60204;-70
2023/08/22 11:05:25;;;;;;;3.90;1.10;;;;;;;38.83;17.44;100115.00;108093;1254;60453;-69
2023/08/22 11:07:52;;;;;;;3.40;1.20;;;;;;;38.68;17.61;100111.89;108089;1254;65200;-70
2023/08/22 11:10:24;;;;;;;4.00;1.30;;;;;;;38.54;17.80;100108.30;108014;1253;62066;-69
2023/08/22 11:12:55;;;;;;;7.30;1.60;;;;;;;38.61;18.25;100100.61;108040;1254;63789;-69
2023/08/22 11:15:22;;;;;;;2.40;1.30;;;;;;;38.01;18.35;100102.61;108051;1253;60474;-69
2023/08/22 11:17:50;;;;;;;5.90;1.40;;;;;;;37.63;18.79;100099.64;108151;1254;60295;-69
2023/08/22 11:20:22;;;;;;;5.40;1.20;;;;;;;37.43;18.85;100099.20;108066;1254;64924;-69
2023/08/22 11:22:49;;;;;;;2.80;1.10;;;;;;;37.68;18.62;100099.11;108095;1253;61367;-69
2023/08/22 11:25:24;;;;;;;2.70;1.20;;;;;;;37.86;18.74;100088.84;108151;1254;71992;-68
2023/08/22 11:27:52;;;;;;;3.00;1.30;;;;;;;37.61;19.05;100095.51;108204;1255;59681;-70
2023/08/22 11:30:19;;;;;;;2.10;1.20;;;;;;;37.52;18.99;100108.52;108184;1254;60325;-69
2023/08/22 11:32:50;;;;;;;;;;;;;;;37.52;18.81;100104.16;108230;1254;65028;-69
2023/08/22 11:35:17;;;;;;;4.30;1.50;;;;;;;37.37;18.52;100098.67;108199;1256;70462;-69
2023/08/22 11:37:45;;;;;;;2.50;1.20;;;;;;;37.47;18.71;100099.09;108227;1253;63807;-69
2023/08/22 11:40:14;;;;;;;4.00;0.90;;;;;;;37.51;18.75;100095.46;108194;1254;60424;-69
2023/08/22 11:42:42;;;;;;;3.00;1.00;;;;;;;37.73;18.58;100093.46;108202;1254;59332;-69
2023/08/22 11:45:11;;;;;;;3.80;1.40;;;;;;;37.82;18.62;100091.88;108268;1252;63707;-69
2023/08/22 11:47:46;;;;;;;2.60;1.20;;;;;;;37.57;18.56;100089.47;108198;1259;60402;-70
2023/08/22 11:50:24;;;;;;;5.30;1.60;;;;;;;37.43;18.52;100088.06;108255;1254;62696;-69
2023/08/22 11:52:53;;;;;;;4.90;0.90;;;;;;;37.49;19.01;100084.75;108271;1253;60306;-70
2023/08/22 11:55:28;;;;;;;3.20;1.30;;;;;;;37.43;18.91;100077.17;108277;1252;60407;-69
2023/08/22 11:57:57;;;;;;;9.60;2.70;;;;;;;37.44;18.73;100084.50;108063;1253;65071;-69
2023/08/22 12:00:29;;;;;;;1.90;1.00;;;;;;;37.22;18.99;100089.77;108198;1254;61416;-70
2023/08/22 12:02:58;;;;;;;5.00;1.20;;;;;;;37.08;18.97;100079.72;108208;1253;62719;-69
2023/08/22 12:05:31;;;;;;;6.20;1.40;;;;;;;37.00;19.09;100073.07;108129;1254;60434;-69
2023/08/22 12:08:05;;;;;;;6.80;1.80;;;;;;;36.83;19.24;100079.91;108090;1253;59901;-69
2023/08/22 12:10:47;;;;;;;3.30;1.00;;;;;;;36.98;19.14;100086.60;108059;1258;64968;-69
2023/08/22 12:13:16;;;;;;;4.60;1.20;;;;;;;37.21;19.14;100078.51;108102;1254;72253;-69
2023/08/22 12:15:44;;;;;;;7.70;1.30;;;;;;;37.51;18.67;100074.77;108076;1254;63754;-69
2023/08/22 12:18:14;;;;;;;9.10;1.20;;;;;;;37.40;18.20;100082.91;108050;1254;60342;-70
2023/08/22 12:20:42;;;;;;;3.80;1.00;;;;;;;37.12;18.86;100078.59;108331;1253;60338;-69
2023/08/22 12:23:11;;;;;;;4.20;1.00;;;;;;;37.11;18.60;100077.45;108241;1253;65141;-70
2023/08/22 12:25:42;;;;;;;2.10;1.10;;;;;;;36.99;18.65;100074.35;108057;1253;61656;-68
2023/08/22 12:28:10;;;;;;;4.10;1.20;;;;;;;36.85;18.91;100067.61;108099;1254;62489;-69
2023/08/22 12:30:38;;;;;;;2.70;1.20;;;;;;;36.45;19.11;100068.89;108137;1254;60309;-69
2023/08/22 12:33:07;;;;;;;5.60;1.30;;;;;;;36.21;19.48;100080.01;108255;1254;60348;-68
2023/08/22 12:35:36;;;;;;;3.00;1.20;;;;;;;36.09;19.97;100080.78;108126;1253;64964;-69
2023/08/22 12:38:04;;;;;;;6.00;1.50;;;;;;;35.91;19.97;100076.63;108175;1254;61335;-69
2023/08/22 12:40:31;;;;;;;3.60;1.30;;;;;;;35.74;19.93;100072.39;108197;1254;63103;-69
2023/08/22 12:42:59;;;;;;;7.30;1.30;;;;;;;35.64;19.99;100067.16;107960;1254;60139;-69
2023/08/22 12:45:27;;;;;;;3.90;1.30;;;;;;;35.70;19.98;100068.58;108006;1253;60187;-69
2023/08/22 12:47:54;;;;;;;6.40;1.40;;;;;;;35.60;19.81;100076.21;108030;1254;65016;-70
2023/08/22 12:50:24;;;;;;;7.80;1.80;;;;;;;35.40;19.59;100074.64;108144;1253;60531;-69
2023/08/22 12:52:52;;;;;;;3.30;1.40;;;;;;;35.38;20.17;100073.59;108090;1253;62616;-69
2023/08/22 12:55:21;;;;;;;4.60;1.60;;;;;;;35.37;20.24;100073.73;108128;1253;58913;-69
2023/08/22 12:57:49;;;;;;;6.30;1.40;;;;;;;35.30;20.15;100075.66;108078;1254;59836;-69
2023/08/22 13:00:19;;;;;;;4.00;1.50;;;;;;;35.30;20.80;100067.75;108208;1254;72585;-67
2023/08/22 13:02:47;;;;;;;5.50;1.60;;;;;;;35.35;20.57;100072.52;108376;1254;61515;-68
2023/08/22 13:05:15;;;;;;;6.50;1.40;;;;;;;35.23;20.63;100068.33;108837;1254;62480;-69
2023/08/22 13:07:44;;;;;;;7.40;1.70;;;;;;;34.98;20.95;100068.96;108510;1252;60632;-69
2023/08/22 13:10:13;;;;;;;6.80;1.80;;;;;;;34.76;20.81;100063.84;108683;1256;59690;-70
2023/08/22 13:12:41;;;;;;;6.60;1.50;;;;;;;34.67;21.09;100072.07;108124;1254;65870;-70
2023/08/22 13:15:09;;;;;;;6.10;1.60;;;;;;;34.51;21.56;100083.05;108172;1258;61618;-69
2023/08/22 13:17:36;;;;;;;8.10;1.60;;;;;;;34.44;21.64;100087.94;108172;1252;62572;-70
2023/08/22 13:20:04;;;;;;;2.40;1.70;;;;;;;34.32;21.91;100079.05;108042;1254;60329;-68
2023/08/22 13:22:32;;;;;;;2.70;1.50;;;;;;;34.09;21.71;100077.30;108109;1254;60507;-69
2023/08/22 13:25:01;;;;;;;7.30;2.00;;;;;;;34.08;21.91;100073.35;108084;1253;63680;-69
2023/08/22 13:27:29;;;;;;;4.60;1.60;;;;;;;34.07;22.08;100066.86;108204;1253;60512;-69
2023/08/22 13:29:56;;;;;;;6.20;1.70;;;;;;;34.14;22.14;100072.78;108217;1254;64306;-68
2023/08/22 13:32:25;;;;;;;6.50;1.90;;;;;;;34.48;22.04;100071.86;108167;1254;60221;-69
2023/08/22 13:34:54;;;;;;;4.20;1.80;;;;;;;34.71;21.37;100068.10;108306;1251;60538;-70
2023/08/22 13:37:24;;;;;;;7.70;1.50;;;;;;;34.99;21.36;100070.29;108342;1251;63730;-69
2023/08/22 13:39:52;;;;;;;3.90;1.60;;;;;;;35.15;21.26;100071.80;108291;1251;61351;-70
2023/08/22 13:42:19;;;;;;;5.60;1.50;;;;;;;35.15;21.05;100074.79;108261;1251;62472;-69
2023/08/22 13:44:47;;;;;;;5.70;1.40;;;;;;;35.09;21.02;100074.55;108305;1254;60282;-69
2023/08/22 13:47:15;;;;;;;4.50;1.50;;;;;;;35.03;21.17;100077.98;108321;1251;60318;-68
2023/08/22 13:49:42;;;;;;;4.70;1.80;;;;;;;34.84;21.16;100073.98;108276;1257;64044;-69
2023/08/22 13:52:10;;;;;;;5.10;1.60;;;;;;;34.85;21.32;100072.84;108201;1254;61552;-69
2023/08/22 13:54:37;;;;;;;8.90;1.90;;;;;;;34.75;21.47;100071.86;108140;1254;62504;-69
2023/08/22 13:57:05;;;;;;;4.30;1.80;;;;;;;34.66;21.97;100067.88;108173;1256;60341;-70
2023/08/22 13:59:34;;;;;;;5.50;1.70;;;;;;;34.56;21.91;100072.35;108256;1254;60312;-70
2023/08/22 14:02:02;;;;;;;3.50;1.70;;;;;;;34.51;22.09;100069.96;108233;1256;63753;-69
2023/08/22 14:04:30;;;;;;;3.10;1.80;;;;;;;34.53;22.06;100065.29;108387;1254;61527;-70
2023/08/22 14:06:58;;;;;;;5.40;1.80;;;;;;;34.46;21.92;100062.28;108279;1254;62582;-69
2023/08/22 14:09:25;;;;;;;3.80;1.70;;;;;;;34.59;22.00;100060.98;108203;1256;60322;-69
2023/08/22 14:11:54;;;;;;;4.40;1.70;;;;;;;34.53;21.83;100057.67;108201;1254;60248;-69
2023/08/22 14:14:22;;;;;;;4.50;1.80;;;;;;;34.41;22.04;100062.20;108394;1254;72636;-68
2023/08/22 14:16:49;;;;;;;3.00;1.70;;;;;;;34.26;22.43;100057.98;108225;1254;61615;-69
2023/08/22 14:19:17;;;;;;;4.50;1.70;;;;;;;34.09;22.44;100056.92;108174;1254;65213;-68
2023/08/22 14:21:46;;;;;;;6.20;1.60;;;;;;;33.99;22.62;100057.02;108197;1254;60394;-69
2023/08/22 14:24:15;;;;;;;4.40;1.30;;;;;;;33.89;22.75;100064.32;108216;1254;60277;-68
2023/08/22 14:26:43;;;;;;;3.90;1.60;;;;;;;33.83;22.66;100062.21;108348;1254;63956;-69
2023/08/22 14:29:11;;;;;;;4.30;1.50;;;;;;;33.86;22.98;100059.11;108196;1254;63856;-68
2023/08/22 14:31:39;;;;;;;3.90;1.40;;;;;;;33.74;22.94;100064.23;108191;1254;62421;-69
2023/08/22 14:34:09;;;;;;;5.30;1.70;;;;;;;33.72;22.63;100064.06;108102;1254;60254;-69
2023/08/22 14:36:37;;;;;;;5.40;1.60;;;;;;;33.66;22.95;100062.77;108188;1254;60310;-69
2023/08/22 14:39:05;;;;;;;4.10;1.80;;;;;;;33.57;23.00;100060.09;108194;1254;67321;-68
2023/08/22 14:41:32;;;;;;;5.50;2.10;;;;;;;33.43;23.10;100059.02;108115;1253;61523;-67
2023/08/22 14:44:00;;;;;;;4.60;1.90;;;;;;;33.49;23.33;100057.77;108292;1253;63957;-69
2023/08/22 14:46:28;;;;;;;5.60;2.30;;;;;;;33.50;23.27;100055.70;108290;1253;59426;-68
2023/08/22 14:48:55;;;;;;;4.10;2.00;;;;;;;33.51;23.20;100060.88;108280;1254;60338;-68
2023/08/22 14:51:23;;;;;;;3.10;1.90;;;;;;;33.72;23.18;100065.20;108249;1256;64889;-69
2023/08/22 14:53:51;;;;;;;4.60;1.70;;;;;;;33.63;23.19;100062.17;108240;1253;61503;-68
2023/08/22 14:56:18;;;;;;;5.40;2.00;;;;;;;33.43;23.68;100058.34;108163;1254;63114;-68
2023/08/22 14:58:46;;;;;;;3.60;1.50;;;;;;;33.40;23.46;100057.12;108205;1254;60344;-69
2023/08/22 15:01:14;;;;;;;4.80;1.70;;;;;;;33.28;23.95;100057.66;108277;1255;59574;-69
2023/08/22 15:03:42;;;;;;;7.40;1.80;;;;;;;33.24;23.90;100058.73;108139;1254;75806;-69
2023/08/22 15:06:09;;;;;;;4.70;1.70;;;;;;;33.27;23.98;100056.35;108259;1254;61287;-68
2023/08/22 15:08:37;;;;;;;10.70;2.10;;;;;;;33.13;24.43;100064.54;108141;1254;72477;-70
2023/08/22 15:11:05;;;;;;;3.60;1.50;;;;;;;32.60;24.61;100068.70;108187;1254;60407;-69
2023/08/22 15:13:33;;;;;;;3.20;1.70;;;;;;;32.47;24.94;100070.38;108137;1252;60233;-69
2023/08/22 15:16:01;;;;;;;3.90;1.70;;;;;;;32.44;24.97;100068.59;108292;1254;74171;-68
2023/08/22 15:18:28;;;;;;;2.70;1.30;;;;;;;32.28;24.90;100067.37;108349;1252;70269;-69
2023/08/22 15:20:56;;;;;;;2.90;1.50;;;;;;;32.14;25.35;100069.52;108233;1254;72640;-68
2023/08/22 15:23:24;;;;;;;6.10;1.90;;;;;;;32.17;25.19;100064.29;108201;1259;60300;-69
2023/08/22 15:25:52;;;;;;;6.30;1.70;;;;;;;32.04;25.22;100067.54;108267;1251;60491;-69
2023/08/22 15:28:20;;;;;;;5.60;1.60;;;;;;;32.12;25.46;100068.36;108301;1251;73868;-68
2023/08/22 15:30:47;;;;;;;5.20;1.30;;;;;;;32.22;25.40;100068.93;108223;1258;70452;-69
2023/08/22 15:33:15;;;;;;;7.20;1.50;;;;;;;32.35;25.58;100069.59;108320;1251;71750;-69
2023/08/22 15:35:46;;;;;;;7.60;1.40;;;;;;;32.49;25.30;100071.20;108307;1251;60517;-69
2023/08/22 15:38:14;;;;;;;3.60;1.40;;;;;;;32.21;25.41;100070.98;108236;1252;60467;-69
2023/08/22 15:40:51;;;;;;;4.60;1.30;;;;;;;32.41;26.20;100072.82;108279;1251;73990;-69
2023/08/22 15:43:19;;;;;;;4.40;1.70;;;;;;;32.54;25.83;100076.90;108262;1251;70148;-68
2023/08/22 15:45:47;;;;;;;8.80;1.60;;;;;;;32.62;25.38;100075.45;108218;1251;72924;-69
2023/08/22 15:48:15;;;;;;;5.20;1.50;;;;;;;32.48;25.45;100076.63;108323;1251;60424;-68
2023/08/22 15:50:43;;;;;;;6.20;1.50;;;;;;;32.49;25.07;100081.76;108387;1251;60299;-68
2023/08/22 15:53:13;;;;;;;4.80;1.50;;;;;;;32.19;25.76;100076.74;108308;1251;73882;-68
2023/08/22 15:55:41;;;;;;;5.60;1.70;;;;;;;32.17;25.88;100080.59;108223;1251;69525;-68
2023/08/22 15:58:08;;;;;;;8.20;1.70;;;;;;;32.02;26.10;100086.02;108285;1251;72435;-69